地図

経路データ

SID SEASON NUMBER BASIN SUBBASIN NAME ISO_TIME NATURE LAT LON WMO_WIND WMO_PRES WMO_AGENCY TRACK_TYPE DIST2LAND LANDFALL IFLAG USA_AGENCY USA_ATCF_ID USA_LAT USA_LON USA_RECORD USA_STATUS USA_WIND USA_PRES USA_SSHS USA_R34_NE USA_R34_SE USA_R34_SW USA_R34_NW USA_R50_NE USA_R50_SE USA_R50_SW USA_R50_NW USA_R64_NE USA_R64_SE USA_R64_SW USA_R64_NW USA_POCI USA_ROCI USA_RMW USA_EYE TOKYO_LAT TOKYO_LON TOKYO_GRADE TOKYO_WIND TOKYO_PRES TOKYO_R50_DIR TOKYO_R50_LONG TOKYO_R50_SHORT TOKYO_R30_DIR TOKYO_R30_LONG TOKYO_R30_SHORT TOKYO_LAND CMA_LAT CMA_LON CMA_CAT CMA_WIND CMA_PRES HKO_LAT HKO_LON HKO_CAT HKO_WIND HKO_PRES NEWDELHI_LAT NEWDELHI_LON NEWDELHI_GRADE NEWDELHI_WIND NEWDELHI_PRES NEWDELHI_CI NEWDELHI_DP NEWDELHI_POCI REUNION_LAT REUNION_LON REUNION_TYPE REUNION_WIND REUNION_PRES REUNION_TNUM REUNION_CI REUNION_RMW REUNION_R34_NE REUNION_R34_SE REUNION_R34_SW REUNION_R34_NW REUNION_R50_NE REUNION_R50_SE REUNION_R50_SW REUNION_R50_NW REUNION_R64_NE REUNION_R64_SE REUNION_R64_SW REUNION_R64_NW BOM_LAT BOM_LON BOM_TYPE BOM_WIND BOM_PRES BOM_TNUM BOM_CI BOM_RMW BOM_R34_NE BOM_R34_SE BOM_R34_SW BOM_R34_NW BOM_R50_NE BOM_R50_SE BOM_R50_SW BOM_R50_NW BOM_R64_NE BOM_R64_SE BOM_R64_SW BOM_R64_NW BOM_ROCI BOM_POCI BOM_EYE BOM_POS_METHOD BOM_PRES_METHOD NADI_LAT NADI_LON NADI_CAT NADI_WIND NADI_PRES WELLINGTON_LAT WELLINGTON_LON WELLINGTON_WIND WELLINGTON_PRES DS824_LAT DS824_LON DS824_STAGE DS824_WIND DS824_PRES TD9636_LAT TD9636_LON TD9636_STAGE TD9636_WIND TD9636_PRES TD9635_LAT TD9635_LON TD9635_WIND TD9635_PRES TD9635_ROCI NEUMANN_LAT NEUMANN_LON NEUMANN_CLASS NEUMANN_WIND NEUMANN_PRES MLC_LAT MLC_LON MLC_CLASS MLC_WIND MLC_PRES USA_GUST BOM_GUST BOM_GUST_PER REUNION_GUST REUNION_GUST_PER USA_SEAHGT USA_SEARAD_NE USA_SEARAD_SE USA_SEARAD_SW USA_SEARAD_NW STORM_SPEED STORM_DIR
1878329N15310 1878 38 NA NA NOT_NAMED 1878-11-25 00:00:00 TS 14.6000 -50.3000 40 hurdat_atl main 1063 1053 O_____________ hurdat_atl AL121878 14.6000 -50.3000 TS 40 0 10 282
1878329N15310 1878 38 NA NA NOT_NAMED 1878-11-25 03:00:00 TS 14.7003 -50.7874 main 1053 1045 P_____________ AL121878 14.7003 -50.7874 TS 40 0 9 283
1878329N15310 1878 38 NA NA NOT_NAMED 1878-11-25 06:00:00 TS 14.8000 -51.2000 40 hurdat_atl main 1049 1042 O_____________ hurdat_atl AL121878 14.8000 -51.2000 TS 40 0 7 286
1878329N15310 1878 38 NA NA NOT_NAMED 1878-11-25 09:00:00 TS 14.8998 -51.5001 main 1050 1047 P_____________ AL121878 14.8998 -51.5001 TS 40 0 6 289
1878329N15310 1878 38 NA NA NOT_NAMED 1878-11-25 12:00:00 TS 15.0000 -51.8000 40 hurdat_atl main 1052 1047 O_____________ hurdat_atl AL121878 15.0000 -51.8000 TS 40 0 7 286
1878329N15310 1878 38 NA NA NOT_NAMED 1878-11-25 15:00:00 TS 15.1000 -52.2275 main 1053 1031 P_____________ AL121878 15.1000 -52.2275 TS 40 0 9 283
1878329N15310 1878 38 NA NA NOT_NAMED 1878-11-25 18:00:00 TS 15.2000 -52.7000 40 hurdat_atl main 1031 999 O_____________ hurdat_atl AL121878 15.2000 -52.7000 TS 40 0 9 282
1878329N15310 1878 38 NA NA NOT_NAMED 1878-11-25 21:00:00 TS 15.2924 -53.1426 main 999 959 P_____________ AL121878 15.2924 -53.1426 TS 45 0 9 283
1878329N15310 1878 38 NA NA NOT_NAMED 1878-11-26 00:00:00 TS 15.4000 -53.6000 50 hurdat_atl main 959 920 O_____________ hurdat_atl AL121878 15.4000 -53.6000 TS 50 0 10 285
1878329N15310 1878 38 NA NA NOT_NAMED 1878-11-26 03:00:00 TS 15.5424 -54.0925 main 920 890 P_____________ AL121878 15.5424 -54.0925 TS 50 0 10 287
1878329N15310 1878 38 NA NA NOT_NAMED 1878-11-26 06:00:00 TS 15.7000 -54.6000 50 hurdat_atl main 890 856 O_____________ hurdat_atl AL121878 15.7000 -54.6000 TS 50 0 10 287
1878329N15310 1878 38 NA NA NOT_NAMED 1878-11-26 09:00:00 TS 15.8349 -55.1077 main 856 832 P_____________ AL121878 15.8349 -55.1077 TS 50 0 10 287
1878329N15310 1878 38 NA NA NOT_NAMED 1878-11-26 12:00:00 TS 16.0000 -55.6000 50 hurdat_atl main 832 818 O_____________ hurdat_atl AL121878 16.0000 -55.6000 TS 50 0 10 294
1878329N15310 1878 38 NA NA NOT_NAMED 1878-11-26 15:00:00 TS 16.2423 -56.0500 main 819 809 P_____________ AL121878 16.2423 -56.0500 TS 50 0 10 300
1878329N15310 1878 38 NA NA NOT_NAMED 1878-11-26 18:00:00 TS 16.5000 -56.5000 50 hurdat_atl main 811 798 O_____________ hurdat_atl AL121878 16.5000 -56.5000 TS 50 0 10 297
1878329N15310 1878 38 NA NA NOT_NAMED 1878-11-26 21:00:00 TS 16.7150 -57.0075 main 798 790 P_____________ AL121878 16.7150 -57.0075 TS 55 0 10 293
1878329N15310 1878 38 NA NA NOT_NAMED 1878-11-27 00:00:00 TS 16.9000 -57.5000 60 hurdat_atl main 790 780 O_____________ hurdat_atl AL121878 16.9000 -57.5000 TS 60 0 9 292
1878329N15310 1878 38 NA NA NOT_NAMED 1878-11-27 03:00:00 TS 17.0573 -57.9077 main 790 781 P_____________ AL121878 17.0573 -57.9077 TS 60 0 8 291
1878329N15310 1878 38 NA NA NOT_NAMED 1878-11-27 06:00:00 TS 17.2000 -58.3000 60 hurdat_atl main 781 737 O_____________ hurdat_atl AL121878 17.2000 -58.3000 TS 60 0 8 291
1878329N15310 1878 38 NA NA NOT_NAMED 1878-11-27 09:00:00 TS 17.3572 -58.7126 main 736 681 P_____________ AL121878 17.3572 -58.7126 TS 60 0 9 289
1878329N15310 1878 38 NA NA NOT_NAMED 1878-11-27 12:00:00 TS 17.5000 -59.2000 60 hurdat_atl main 681 617 O_____________ hurdat_atl AL121878 17.5000 -59.2000 TS 60 0 11 283
1878329N15310 1878 38 NA NA NOT_NAMED 1878-11-27 15:00:00 TS 17.6078 -59.8426 main 617 542 P_____________ AL121878 17.6078 -59.8426 TS 60 0 13 279
1878329N15310 1878 38 NA NA NOT_NAMED 1878-11-27 18:00:00 TS 17.7000 -60.5000 60 hurdat_atl main 542 488 O_____________ hurdat_atl AL121878 17.7000 -60.5000 TS 60 0 11 280
1878329N15310 1878 38 NA NA NOT_NAMED 1878-11-27 21:00:00 TS 17.8071 -61.0075 main 488 434 P_____________ AL121878 17.8071 -61.0075 TS 60 0 10 282
1878329N15310 1878 38 NA CS NOT_NAMED 1878-11-28 00:00:00 TS 17.9000 -61.5000 60 hurdat_atl main 434 381 O_____________ hurdat_atl AL121878 17.9000 -61.5000 TS 60 0 10 279
1878329N15310 1878 38 NA CS NOT_NAMED 1878-11-28 03:00:00 TS 17.9649 -62.0775 main 370 307 P_____________ AL121878 17.9649 -62.0775 TS 60 0 11 275
1878329N15310 1878 38 NA CS NOT_NAMED 1878-11-28 06:00:00 TS 18.0000 -62.7000 60 hurdat_atl main 307 244 O_____________ hurdat_atl AL121878 18.0000 -62.7000 TS 60 0 12 272
1878329N15310 1878 38 NA CS NOT_NAMED 1878-11-28 09:00:00 TS 18.0074 -63.3426 main 244 170 P_____________ AL121878 18.0074 -63.3426 TS 60 0 12 270
1878329N15310 1878 38 NA CS NOT_NAMED 1878-11-28 12:00:00 TS 18.0000 -64.0000 60 hurdat_atl main 170 108 O_____________ hurdat_atl AL121878 18.0000 -64.0000 TS 60 0 12 270
1878329N15310 1878 38 NA CS NOT_NAMED 1878-11-28 15:00:00 TS 18.0073 -64.6499 main 108 38 P_____________ AL121878 18.0073 -64.6499 TS 60 0 12 270
1878329N15310 1878 38 NA CS NOT_NAMED 1878-11-28 18:00:00 TS 18.0000 -65.3000 60 hurdat_atl main 38 0 O_____________ hurdat_atl AL121878 18.0000 -65.3000 TS 60 0 12 268
1878329N15310 1878 38 NA CS NOT_NAMED 1878-11-28 21:00:00 TS 17.9649 -65.9575 main 0 0 P_____________ AL121878 17.9649 -65.9575 TS 60 0 12 265
1878329N15310 1878 38 NA CS NOT_NAMED 1878-11-29 00:00:00 TS 17.9000 -66.6000 60 hurdat_atl main 11 0 O_____________ hurdat_atl AL121878 17.9000 -66.6000 TS 60 0 12 262
1878329N15310 1878 38 NA CS NOT_NAMED 1878-11-29 03:00:00 TS 17.8072 -67.2075 main 11 11 P_____________ AL121878 17.8072 -67.2075 TS 60 0 12 260
1878329N15310 1878 38 NA CS NOT_NAMED 1878-11-29 06:00:00 TS 17.7000 -67.8000 60 hurdat_atl main 67 67 O_____________ hurdat_atl AL121878 17.7000 -67.8000 TS 60 0 12 259
1878329N15310 1878 38 NA CS NOT_NAMED 1878-11-29 09:00:00 TS 17.5925 -68.4225 main 70 67 P_____________ AL121878 17.5925 -68.4225 TS 60 0 12 260
1878329N15310 1878 38 NA CS NOT_NAMED 1878-11-29 12:00:00 TS 17.5000 -69.0000 60 hurdat_atl main 81 81 O_____________ hurdat_atl AL121878 17.5000 -69.0000 TS 60 0 10 262
1878329N15310 1878 38 NA CS NOT_NAMED 1878-11-29 15:00:00 TS 17.4573 -69.4873 main 101 94 P_____________ AL121878 17.4573 -69.4873 TS 60 0 9 263
1878329N15310 1878 38 NA CS NOT_NAMED 1878-11-29 18:00:00 TS 17.4000 -69.9000 60 hurdat_atl main 94 91 O_____________ hurdat_atl AL121878 17.4000 -69.9000 TS 60 0 8 255
1878329N15310 1878 38 NA CS NOT_NAMED 1878-11-29 21:00:00 TS 17.2574 -70.2651 main 100 100 P_____________ AL121878 17.2574 -70.2651 TS 60 0 7 246
1878329N15310 1878 38 NA CS NOT_NAMED 1878-11-30 00:00:00 TS 17.1000 -70.6000 60 hurdat_atl main 101 85 O_____________ hurdat_atl AL121878 17.1000 -70.6000 TS 60 0 7 248
1878329N15310 1878 38 NA CS NOT_NAMED 1878-11-30 03:00:00 TS 16.9924 -70.9499 main 85 74 P_____________ AL121878 16.9924 -70.9499 TS 60 0 7 253
1878329N15310 1878 38 NA CS NOT_NAMED 1878-11-30 06:00:00 TS 16.9000 -71.3000 60 hurdat_atl main 79 78 O_____________ hurdat_atl AL121878 16.9000 -71.3000 TS 60 0 7 254
1878329N15310 1878 38 NA CS NOT_NAMED 1878-11-30 09:00:00 TS 16.8000 -71.6575 main 95 95 P_____________ AL121878 16.8000 -71.6575 TS 60 0 7 253
1878329N15310 1878 38 NA CS NOT_NAMED 1878-11-30 12:00:00 TS 16.7000 -72.0000 60 hurdat_atl main 119 119 O_____________ hurdat_atl AL121878 16.7000 -72.0000 TS 60 0 7 253
1878329N15310 1878 38 NA CS NOT_NAMED 1878-11-30 15:00:00 TS 16.6075 -72.3149 main 147 147 P_____________ AL121878 16.6075 -72.3149 TS 60 0 6 251
1878329N15310 1878 38 NA CS NOT_NAMED 1878-11-30 18:00:00 TS 16.5000 -72.6000 60 hurdat_atl main 177 177 O_____________ hurdat_atl AL121878 16.5000 -72.6000 TS 60 0 6 242
1878329N15310 1878 38 NA CS NOT_NAMED 1878-11-30 21:00:00 TS 16.3349 -72.8426 main 201 201 P_____________ AL121878 16.3349 -72.8426 TS 55 0 6 238
1878329N15310 1878 38 NA CS NOT_NAMED 1878-12-01 00:00:00 TS 16.2000 -73.1000 50 hurdat_atl main 214 205 O_____________ hurdat_atl AL121878 16.2000 -73.1000 TS 50 0 6 256
1878329N15310 1878 38 NA CS NOT_NAMED 1878-12-01 03:00:00 TS 16.1925 -73.4348 main 205 201 P_____________ AL121878 16.1925 -73.4348 TS 50 0 7 270
1878329N15310 1878 38 NA CS NOT_NAMED 1878-12-01 06:00:00 TS 16.2000 -73.8000 50 hurdat_atl main 201 201 O_____________ hurdat_atl AL121878 16.2000 -73.8000 TS 50 0 7 263
1878329N15310 1878 38 NA CS NOT_NAMED 1878-12-01 09:00:00 TS 16.1075 -74.1651 main 215 215 P_____________ AL121878 16.1075 -74.1651 TS 50 0 7 253
1878329N15310 1878 38 NA CS NOT_NAMED 1878-12-01 12:00:00 TS 16.0000 -74.5000 50 hurdat_atl main 232 232 O_____________ hurdat_atl AL121878 16.0000 -74.5000 TS 50 0 6 254
1878329N15310 1878 38 NA CS NOT_NAMED 1878-12-01 15:00:00 TS 15.9349 -74.7725 main 253 253 P_____________ AL121878 15.9349 -74.7725 TS 50 0 5 258
1878329N15310 1878 38 NA CS NOT_NAMED 1878-12-01 18:00:00 TS 15.9000 -75.0000 50 hurdat_atl main 257 247 O_____________ hurdat_atl AL121878 15.9000 -75.0000 TS 50 0 4 265
1878329N15310 1878 38 NA CS NOT_NAMED 1878-12-01 21:00:00 TS 15.8999 -75.1849 main 247 239 P_____________ AL121878 15.8999 -75.1849 TS 45 0 4 270
1878329N15310 1878 38 NA CS NOT_NAMED 1878-12-02 00:00:00 TS 15.9000 -75.4000 40 hurdat_atl main 239 230 O_____________ hurdat_atl AL121878 15.9000 -75.4000 TS 40 0 5 266
1878329N15310 1878 38 NA CS NOT_NAMED 1878-12-02 03:00:00 TS 15.8576 -75.7500 main 227 227 P_____________ AL121878 15.8576 -75.7500 TS 40 0 7 262
1878329N15310 1878 38 NA CS NOT_NAMED 1878-12-02 06:00:00 TS 15.8000 -76.1000 40 hurdat_atl main 235 233 O_____________ hurdat_atl AL121878 15.8000 -76.1000 TS 40 0 6 260
1878329N15310 1878 38 NA CS NOT_NAMED 1878-12-02 09:00:00 TS 15.7574 -76.3149 main 233 233 P_____________ AL121878 15.7574 -76.3149 TS 40 0 4 255
1878329N15310 1878 38 NA CS NOT_NAMED 1878-12-02 12:00:00 TS 15.7000 -76.5000 40 hurdat_atl main 235 232 O_____________ hurdat_atl AL121878 15.7000 -76.5000 TS 40 0 4 250
1878329N15310 1878 38 NA CS NOT_NAMED 1878-12-02 15:00:00 TS 15.6101 -76.7326 main 240 237 P_____________ AL121878 15.6101 -76.7326 TS 40 0 5 247
1878329N15310 1878 38 NA CS NOT_NAMED 1878-12-02 18:00:00 TS 15.5000 -77.0000 40 hurdat_atl main 247 O_____________ hurdat_atl AL121878 15.5000 -77.0000 TS 40 0 6 247

IBTrACS Databaseについて

本データベースは、米国NOAAが公開する1842年以降の世界の熱帯低気圧のベストトラックデータアーカイブInternational Best Track Archive for Climate Stewardship (IBTrACS)を、ウェブで閲覧しやすい形式に変換したものです。

最終更新日:2021-10-08